»·PEaware :: N420VL KHAF-KSAC

N420VL :: KHAF-KSAC

FLIGHT INFORMATION

Flight Status: Arrived
Operator: Privately registered:
United States
More flights under this callsign
Pilot: Chris V. (11989)
Aircraft: PIPER PA-18 SUPER CUB
(PA18)
More flights by this aircraft type
Origin: KHAF Half Moon Bay
United States
Destination: KSAC Sacramento Executive
United States
More flights between these airports :: More routes between these airports
Route: +
File this flight plan on PilotEdge
Remarks:
Altitude:
(Current/Filed)
0ft
Speed:
(Current/Filed)
0kts
Departed: 03-Aug-18 02:48 PM
Arrived: 03-Aug-18 03:42 PM
Distance/Time
Traveled:
85nm/0:54
Distance/Time
To Go:
Arrived

Flight Plot

Page will automatically refresh every two minutes.

Flight plan parsing failed; only flown route is shown


Map Options




Map Legend


Flown Route
Filed Route
Departure Airport
Arrival Airport
Navaid (VOR, NDB)
Fix

Horizontal Profiles

Position Reports

Time Latitude Longitude Heading Altitude Ground
Speed
03-Aug-18 14:48 37.866993 -122.456178 248 1442ft 91kts
03-Aug-18 14:49 37.856881 -122.485179 277 1610ft 91kts
03-Aug-18 14:50 37.874166 -122.491402 67 1515ft 90kts
03-Aug-18 14:51 37.877515 -122.465972 83 1561ft 89kts
03-Aug-18 14:52 37.862211 -122.444230 176 1432ft 103kts
03-Aug-18 14:53 37.834901 -122.439345 168 1430ft 99kts
03-Aug-18 14:54 37.813181 -122.433022 165 1558ft 93kts
03-Aug-18 14:55 37.785116 -122.415402 133 1639ft 107kts
03-Aug-18 14:56 37.776570 -122.387351 61 1410ft 105kts
03-Aug-18 14:57 37.796303 -122.383761 350 1431ft 72kts
03-Aug-18 14:58 37.809617 -122.399364 305 1408ft 72kts
03-Aug-18 14:59 37.810160 -122.425046 235 1381ft 86kts
03-Aug-18 15:00 37.806238 -122.414810 335 1365ft 74kts
03-Aug-18 15:01 37.800484 -122.421810 106 1440ft 115kts
03-Aug-18 15:02 37.808321 -122.388179 41 1470ft 95kts
03-Aug-18 15:03 37.820746 -122.357432 74 1537ft 103kts
03-Aug-18 15:04 37.826790 -122.321058 73 1523ft 108kts
03-Aug-18 15:05 37.829765 -122.283653 75 1500ft 110kts
03-Aug-18 15:06 37.819067 -122.247370 98 1415ft 112kts
03-Aug-18 15:07 37.827214 -122.213121 70 2024ft 98kts
03-Aug-18 15:08 37.841434 -122.184754 30 2853ft 91kts
03-Aug-18 15:09 37.862153 -122.165808 32 3450ft 92kts
03-Aug-18 15:10 37.884110 -122.145632 32 3515ft 107kts
03-Aug-18 15:11 37.898012 -122.114088 75 3484ft 106kts
03-Aug-18 15:12 37.907758 -122.078051 65 3489ft 108kts
03-Aug-18 15:13 37.922962 -122.045403 54 3470ft 106kts
03-Aug-18 15:14 37.939102 -122.013345 50 3444ft 107kts
03-Aug-18 15:15 37.961467 -121.987288 36 3337ft 105kts
03-Aug-18 15:16 37.986548 -121.967803 28 3352ft 102kts
03-Aug-18 15:17 38.010768 -121.949191 29 3420ft 102kts
03-Aug-18 15:18 38.034313 -121.930360 41 3357ft 105kts
03-Aug-18 15:19 38.056835 -121.907550 30 3434ft 104kts
03-Aug-18 15:20 38.084023 -121.892201 27 3406ft 107kts
03-Aug-18 15:21 38.110730 -121.876644 24 3405ft 108kts
03-Aug-18 15:22 38.136900 -121.861306 24 3405ft 108kts
03-Aug-18 15:23 38.163946 -121.844795 40 3399ft 108kts
03-Aug-18 15:24 38.178480 -121.811481 61 3405ft 108kts
03-Aug-18 15:25 38.192442 -121.777693 61 3405ft 108kts
03-Aug-18 15:26 38.206360 -121.743833 61 3405ft 108kts
03-Aug-18 15:27 38.220159 -121.710095 62 3405ft 108kts
03-Aug-18 15:28 38.238823 -121.683421 13 3406ft 108kts
03-Aug-18 15:29 38.268054 -121.675126 12 3405ft 108kts
03-Aug-18 15:30 38.297389 -121.666734 12 3405ft 108kts
03-Aug-18 15:31 38.326525 -121.658310 12 3405ft 108kts
03-Aug-18 15:32 38.355859 -121.649730 12 3405ft 108kts
03-Aug-18 15:33 38.384660 -121.639361 17 3405ft 108kts
03-Aug-18 15:34 38.410762 -121.621281 32 3443ft 101kts
03-Aug-18 15:35 38.429492 -121.600910 15 3400ft 100kts
03-Aug-18 15:36 38.455627 -121.586576 30 2961ft 101kts
03-Aug-18 15:37 38.477423 -121.563068 39 1882ft 97kts
03-Aug-18 15:38 38.496999 -121.543980 38 1405ft 83kts
03-Aug-18 15:39 38.517346 -121.526581 31 1087ft 88kts
03-Aug-18 15:40 38.537162 -121.512404 28 1039ft 83kts
03-Aug-18 15:41 38.533411 -121.490978 132 623ft 82kts
03-Aug-18 15:42 38.518910 -121.489384 212 103ft 58kts
03-Aug-18 15:43 38.511383 -121.496992 275 20ft 2kts
03-Aug-18 15:44 38.513001 -121.495924 32 21ft 18kts
03-Aug-18 15:45 38.517078 -121.492558 33 23ft 16kts
03-Aug-18 15:46 38.519182 -121.490352 97 23ft 0kts
03-Aug-18 15:47 38.518858 -121.489491 186 23ft 9kts
03-Aug-18 15:48 38.511291 -121.509138 293 803ft 99kts
03-Aug-18 15:49 38.537087 -121.509396 5 1260ft 105kts
03-Aug-18 15:50 38.561440 -121.493626 75 972ft 101kts
03-Aug-18 15:51 38.571518 -121.464707 17 1142ft 92kts
03-Aug-18 15:52 38.594284 -121.449931 34 1288ft 92kts
03-Aug-18 15:53 38.615855 -121.435649 350 1416ft 93kts
03-Aug-18 15:54 38.641517 -121.437210 1 1523ft 95kts
03-Aug-18 15:55 38.667940 -121.441841 350 1485ft 100kts
03-Aug-18 15:56 38.678339 -121.457089 186 1010ft 97kts
03-Aug-18 15:57 38.663140 -121.448570 73 408ft 56kts

Navigation Log

Ident Type
Flight plan parsing failed, navigation log unavailable